sensor_id;sensor_type;location;lat;lon;timestamp;temperature;humidity
7686;DHT22;3885;51.474;-2.576;2024-01-25T00:00:18;6.60;74.70
7686;DHT22;3885;51.474;-2.576;2024-01-25T00:02:45;6.60;74.70
7686;DHT22;3885;51.474;-2.576;2024-01-25T00:05:12;6.70;74.70
7686;DHT22;3885;51.474;-2.576;2024-01-25T00:07:47;6.70;74.60
7686;DHT22;3885;51.474;-2.576;2024-01-25T00:10:15;6.70;74.60
7686;DHT22;3885;51.474;-2.576;2024-01-25T00:12:43;6.70;74.60
7686;DHT22;3885;51.474;-2.576;2024-01-25T00:15:10;6.80;74.60
7686;DHT22;3885;51.474;-2.576;2024-01-25T00:17:37;6.70;74.60
7686;DHT22;3885;51.474;-2.576;2024-01-25T00:20:05;6.80;74.60
7686;DHT22;3885;51.474;-2.576;2024-01-25T00:22:32;6.70;74.60
7686;DHT22;3885;51.474;-2.576;2024-01-25T00:25:00;6.80;74.50
7686;DHT22;3885;51.474;-2.576;2024-01-25T00:27:27;6.70;74.60
7686;DHT22;3885;51.474;-2.576;2024-01-25T00:29:54;6.70;74.50
7686;DHT22;3885;51.474;-2.576;2024-01-25T00:32:21;6.80;74.50
7686;DHT22;3885;51.474;-2.576;2024-01-25T00:34:48;6.80;74.50
7686;DHT22;3885;51.474;-2.576;2024-01-25T00:37:16;6.80;74.40
7686;DHT22;3885;51.474;-2.576;2024-01-25T00:39:43;6.80;74.50
7686;DHT22;3885;51.474;-2.576;2024-01-25T00:42:12;6.90;74.40
7686;DHT22;3885;51.474;-2.576;2024-01-25T00:44:40;6.80;74.40
7686;DHT22;3885;51.474;-2.576;2024-01-25T00:47:08;6.90;74.40
7686;DHT22;3885;51.474;-2.576;2024-01-25T00:49:36;6.90;74.40
7686;DHT22;3885;51.474;-2.576;2024-01-25T00:52:03;6.90;74.40
7686;DHT22;3885;51.474;-2.576;2024-01-25T00:54:31;7.00;74.30
7686;DHT22;3885;51.474;-2.576;2024-01-25T00:56:58;7.00;74.30
7686;DHT22;3885;51.474;-2.576;2024-01-25T00:59:27;7.00;74.30
7686;DHT22;3885;51.474;-2.576;2024-01-25T01:01:55;7.00;74.30
7686;DHT22;3885;51.474;-2.576;2024-01-25T01:04:24;7.00;74.30
7686;DHT22;3885;51.474;-2.576;2024-01-25T01:06:51;7.00;74.30
7686;DHT22;3885;51.474;-2.576;2024-01-25T01:09:18;7.00;74.30
7686;DHT22;3885;51.474;-2.576;2024-01-25T01:11:46;7.10;74.20
7686;DHT22;3885;51.474;-2.576;2024-01-25T01:14:13;7.10;74.20
7686;DHT22;3885;51.474;-2.576;2024-01-25T01:16:41;7.10;74.20
7686;DHT22;3885;51.474;-2.576;2024-01-25T01:19:08;7.10;74.20
7686;DHT22;3885;51.474;-2.576;2024-01-25T01:21:35;7.10;74.10
7686;DHT22;3885;51.474;-2.576;2024-01-25T01:24:02;7.10;74.10
7686;DHT22;3885;51.474;-2.576;2024-01-25T01:26:29;7.10;74.10
7686;DHT22;3885;51.474;-2.576;2024-01-25T01:28:56;7.20;74.10
7686;DHT22;3885;51.474;-2.576;2024-01-25T01:31:23;7.20;74.10
7686;DHT22;3885;51.474;-2.576;2024-01-25T01:33:51;7.20;74.10
7686;DHT22;3885;51.474;-2.576;2024-01-25T01:36:18;7.20;74.00
7686;DHT22;3885;51.474;-2.576;2024-01-25T01:38:45;7.20;74.00
7686;DHT22;3885;51.474;-2.576;2024-01-25T01:41:12;7.20;74.00
7686;DHT22;3885;51.474;-2.576;2024-01-25T01:43:39;7.30;74.00
7686;DHT22;3885;51.474;-2.576;2024-01-25T01:46:25;7.30;74.00
7686;DHT22;3885;51.474;-2.576;2024-01-25T01:48:56;7.30;73.90
7686;DHT22;3885;51.474;-2.576;2024-01-25T01:51:24;7.30;73.90
7686;DHT22;3885;51.474;-2.576;2024-01-25T01:53:51;7.40;73.90
7686;DHT22;3885;51.474;-2.576;2024-01-25T01:56:18;7.40;73.90
7686;DHT22;3885;51.474;-2.576;2024-01-25T01:58:47;7.40;73.90
7686;DHT22;3885;51.474;-2.576;2024-01-25T02:01:15;7.40;73.90
7686;DHT22;3885;51.474;-2.576;2024-01-25T02:03:42;7.40;73.90
7686;DHT22;3885;51.474;-2.576;2024-01-25T02:06:10;7.40;73.80
7686;DHT22;3885;51.474;-2.576;2024-01-25T02:08:37;7.50;73.80
7686;DHT22;3885;51.474;-2.576;2024-01-25T02:11:04;7.40;73.80
7686;DHT22;3885;51.474;-2.576;2024-01-25T02:13:31;7.50;73.80
7686;DHT22;3885;51.474;-2.576;2024-01-25T02:15:58;7.50;73.70
7686;DHT22;3885;51.474;-2.576;2024-01-25T02:18:25;7.50;73.70
7686;DHT22;3885;51.474;-2.576;2024-01-25T02:20:52;7.50;73.70
7686;DHT22;3885;51.474;-2.576;2024-01-25T02:23:20;7.50;73.70
7686;DHT22;3885;51.474;-2.576;2024-01-25T02:25:47;7.50;73.70
7686;DHT22;3885;51.474;-2.576;2024-01-25T02:28:14;7.50;73.70
7686;DHT22;3885;51.474;-2.576;2024-01-25T02:30:41;7.60;73.60
7686;DHT22;3885;51.474;-2.576;2024-01-25T02:33:08;7.60;73.60
7686;DHT22;3885;51.474;-2.576;2024-01-25T02:35:35;7.60;73.50
7686;DHT22;3885;51.474;-2.576;2024-01-25T02:38:02;7.70;73.40
7686;DHT22;3885;51.474;-2.576;2024-01-25T02:40:30;7.80;73.40
7686;DHT22;3885;51.474;-2.576;2024-01-25T02:42:57;7.80;73.40
7686;DHT22;3885;51.474;-2.576;2024-01-25T02:45:24;7.80;73.30
7686;DHT22;3885;51.474;-2.576;2024-01-25T02:47:51;7.80;73.30
7686;DHT22;3885;51.474;-2.576;2024-01-25T02:50:18;7.90;73.20
7686;DHT22;3885;51.474;-2.576;2024-01-25T02:52:45;7.90;73.20
7686;DHT22;3885;51.474;-2.576;2024-01-25T02:55:12;8.00;73.10
7686;DHT22;3885;51.474;-2.576;2024-01-25T02:57:40;8.10;73.10
7686;DHT22;3885;51.474;-2.576;2024-01-25T03:00:08;8.10;73.00
7686;DHT22;3885;51.474;-2.576;2024-01-25T03:02:35;8.10;73.00
7686;DHT22;3885;51.474;-2.576;2024-01-25T03:05:03;8.10;73.00
7686;DHT22;3885;51.474;-2.576;2024-01-25T03:07:30;8.10;72.90
7686;DHT22;3885;51.474;-2.576;2024-01-25T03:09:56;8.20;72.90
7686;DHT22;3885;51.474;-2.576;2024-01-25T03:12:23;8.20;72.80
7686;DHT22;3885;51.474;-2.576;2024-01-25T03:14:52;8.20;72.70
7686;DHT22;3885;51.474;-2.576;2024-01-25T03:17:18;8.30;72.70
7686;DHT22;3885;51.474;-2.576;2024-01-25T03:19:45;8.30;72.70
7686;DHT22;3885;51.474;-2.576;2024-01-25T03:22:13;8.30;72.40
7686;DHT22;3885;51.474;-2.576;2024-01-25T03:24:40;8.30;72.20
7686;DHT22;3885;51.474;-2.576;2024-01-25T03:27:07;8.40;72.10
7686;DHT22;3885;51.474;-2.576;2024-01-25T03:29:41;8.30;72.20
7686;DHT22;3885;51.474;-2.576;2024-01-25T03:32:09;8.30;72.00
7686;DHT22;3885;51.474;-2.576;2024-01-25T03:34:36;8.30;72.00
7686;DHT22;3885;51.474;-2.576;2024-01-25T03:37:03;8.30;71.90
7686;DHT22;3885;51.474;-2.576;2024-01-25T03:39:30;8.30;71.80
7686;DHT22;3885;51.474;-2.576;2024-01-25T03:41:57;8.30;71.70
7686;DHT22;3885;51.474;-2.576;2024-01-25T03:44:24;8.40;71.60
7686;DHT22;3885;51.474;-2.576;2024-01-25T03:46:51;8.40;71.50
7686;DHT22;3885;51.474;-2.576;2024-01-25T03:49:19;8.40;71.40
7686;DHT22;3885;51.474;-2.576;2024-01-25T03:51:48;8.40;71.40
7686;DHT22;3885;51.474;-2.576;2024-01-25T03:54:16;8.40;71.40
7686;DHT22;3885;51.474;-2.576;2024-01-25T03:56:42;8.40;71.30
7686;DHT22;3885;51.474;-2.576;2024-01-25T03:59:09;8.40;71.30
7686;DHT22;3885;51.474;-2.576;2024-01-25T04:01:43;8.40;71.20
7686;DHT22;3885;51.474;-2.576;2024-01-25T04:04:10;8.40;71.10
7686;DHT22;3885;51.474;-2.576;2024-01-25T04:06:41;8.40;71.10
7686;DHT22;3885;51.474;-2.576;2024-01-25T04:09:09;8.40;71.10
7686;DHT22;3885;51.474;-2.576;2024-01-25T04:11:36;8.40;71.00
7686;DHT22;3885;51.474;-2.576;2024-01-25T04:14:03;8.40;71.00
7686;DHT22;3885;51.474;-2.576;2024-01-25T04:16:30;8.40;71.00
7686;DHT22;3885;51.474;-2.576;2024-01-25T04:18:57;8.40;70.90
7686;DHT22;3885;51.474;-2.576;2024-01-25T04:21:24;8.50;70.90
7686;DHT22;3885;51.474;-2.576;2024-01-25T04:23:52;8.50;70.90
7686;DHT22;3885;51.474;-2.576;2024-01-25T04:26:19;8.50;70.90
7686;DHT22;3885;51.474;-2.576;2024-01-25T04:28:46;8.50;71.00
7686;DHT22;3885;51.474;-2.576;2024-01-25T04:31:13;8.50;71.00
7686;DHT22;3885;51.474;-2.576;2024-01-25T04:33:40;8.60;71.00
7686;DHT22;3885;51.474;-2.576;2024-01-25T04:36:07;8.60;70.90
7686;DHT22;3885;51.474;-2.576;2024-01-25T04:38:34;8.60;70.90
7686;DHT22;3885;51.474;-2.576;2024-01-25T04:41:02;8.70;70.80
7686;DHT22;3885;51.474;-2.576;2024-01-25T04:43:33;8.70;70.80
7686;DHT22;3885;51.474;-2.576;2024-01-25T04:46:01;8.80;70.80
7686;DHT22;3885;51.474;-2.576;2024-01-25T04:48:28;8.80;70.70
7686;DHT22;3885;51.474;-2.576;2024-01-25T04:50:56;8.80;70.70
7686;DHT22;3885;51.474;-2.576;2024-01-25T04:53:23;8.80;70.70
7686;DHT22;3885;51.474;-2.576;2024-01-25T04:55:50;8.80;70.80
7686;DHT22;3885;51.474;-2.576;2024-01-25T04:58:18;8.80;70.80
7686;DHT22;3885;51.474;-2.576;2024-01-25T05:00:45;8.80;70.80
7686;DHT22;3885;51.474;-2.576;2024-01-25T05:03:12;8.80;70.80
7686;DHT22;3885;51.474;-2.576;2024-01-25T05:05:39;8.80;70.80
7686;DHT22;3885;51.474;-2.576;2024-01-25T05:08:06;8.80;70.60
7686;DHT22;3885;51.474;-2.576;2024-01-25T05:10:33;8.80;70.70
7686;DHT22;3885;51.474;-2.576;2024-01-25T05:13:00;8.90;70.70
7686;DHT22;3885;51.474;-2.576;2024-01-25T05:15:28;9.00;70.60
7686;DHT22;3885;51.474;-2.576;2024-01-25T05:17:55;9.00;70.50
7686;DHT22;3885;51.474;-2.576;2024-01-25T05:20:22;9.00;70.40
7686;DHT22;3885;51.474;-2.576;2024-01-25T05:22:54;9.10;70.30
7686;DHT22;3885;51.474;-2.576;2024-01-25T05:25:20;9.10;70.30
7686;DHT22;3885;51.474;-2.576;2024-01-25T05:27:47;9.10;70.20
7686;DHT22;3885;51.474;-2.576;2024-01-25T05:30:14;9.20;70.20
7686;DHT22;3885;51.474;-2.576;2024-01-25T05:32:44;9.20;70.10
7686;DHT22;3885;51.474;-2.576;2024-01-25T05:35:12;9.30;69.90
7686;DHT22;3885;51.474;-2.576;2024-01-25T05:37:38;9.30;69.80
7686;DHT22;3885;51.474;-2.576;2024-01-25T05:40:06;9.50;69.50
7686;DHT22;3885;51.474;-2.576;2024-01-25T05:42:34;9.50;69.30
7686;DHT22;3885;51.474;-2.576;2024-01-25T05:45:01;9.60;69.20
7686;DHT22;3885;51.474;-2.576;2024-01-25T05:47:29;9.70;69.00
7686;DHT22;3885;51.474;-2.576;2024-01-25T05:49:57;9.80;68.80
7686;DHT22;3885;51.474;-2.576;2024-01-25T05:52:24;9.80;68.60
7686;DHT22;3885;51.474;-2.576;2024-01-25T05:54:52;9.90;68.50
7686;DHT22;3885;51.474;-2.576;2024-01-25T05:57:18;9.90;68.40
7686;DHT22;3885;51.474;-2.576;2024-01-25T05:59:46;9.80;68.30
7686;DHT22;3885;51.474;-2.576;2024-01-25T06:02:13;10.00;68.30
7686;DHT22;3885;51.474;-2.576;2024-01-25T06:04:40;10.00;68.10
7686;DHT22;3885;51.474;-2.576;2024-01-25T06:07:08;10.10;68.00
7686;DHT22;3885;51.474;-2.576;2024-01-25T06:09:36;10.10;67.90
7686;DHT22;3885;51.474;-2.576;2024-01-25T06:12:03;10.10;67.80
7686;DHT22;3885;51.474;-2.576;2024-01-25T06:14:30;10.10;67.70
7686;DHT22;3885;51.474;-2.576;2024-01-25T06:16:57;10.10;67.70
7686;DHT22;3885;51.474;-2.576;2024-01-25T06:19:24;10.10;67.60
7686;DHT22;3885;51.474;-2.576;2024-01-25T06:21:51;10.10;67.60
7686;DHT22;3885;51.474;-2.576;2024-01-25T06:24:19;10.10;67.60
7686;DHT22;3885;51.474;-2.576;2024-01-25T06:26:46;10.10;67.50
7686;DHT22;3885;51.474;-2.576;2024-01-25T06:29:14;10.10;67.40
7686;DHT22;3885;51.474;-2.576;2024-01-25T06:31:42;10.10;67.40
7686;DHT22;3885;51.474;-2.576;2024-01-25T06:34:09;10.10;67.30
7686;DHT22;3885;51.474;-2.576;2024-01-25T06:36:37;10.20;67.30
7686;DHT22;3885;51.474;-2.576;2024-01-25T06:39:04;10.20;67.20
7686;DHT22;3885;51.474;-2.576;2024-01-25T06:41:32;10.20;67.20
7686;DHT22;3885;51.474;-2.576;2024-01-25T06:43:59;10.20;67.10
7686;DHT22;3885;51.474;-2.576;2024-01-25T06:46:27;10.30;66.90
7686;DHT22;3885;51.474;-2.576;2024-01-25T06:48:54;10.30;66.80
7686;DHT22;3885;51.474;-2.576;2024-01-25T06:51:21;10.30;66.70
7686;DHT22;3885;51.474;-2.576;2024-01-25T06:53:47;10.30;66.70
7686;DHT22;3885;51.474;-2.576;2024-01-25T06:56:14;10.30;66.60
7686;DHT22;3885;51.474;-2.576;2024-01-25T06:58:43;10.30;66.60
7686;DHT22;3885;51.474;-2.576;2024-01-25T07:01:10;10.30;66.50
7686;DHT22;3885;51.474;-2.576;2024-01-25T07:03:37;10.30;66.50
7686;DHT22;3885;51.474;-2.576;2024-01-25T07:06:05;10.30;66.50
7686;DHT22;3885;51.474;-2.576;2024-01-25T07:08:32;10.30;66.40
7686;DHT22;3885;51.474;-2.576;2024-01-25T07:10:59;10.40;66.30
7686;DHT22;3885;51.474;-2.576;2024-01-25T07:13:27;10.40;66.20
7686;DHT22;3885;51.474;-2.576;2024-01-25T07:15:55;10.40;66.20
7686;DHT22;3885;51.474;-2.576;2024-01-25T07:18:22;10.40;66.10
7686;DHT22;3885;51.474;-2.576;2024-01-25T07:20:50;10.40;66.10
7686;DHT22;3885;51.474;-2.576;2024-01-25T07:23:17;10.40;66.10
7686;DHT22;3885;51.474;-2.576;2024-01-25T07:25:44;10.40;66.10
7686;DHT22;3885;51.474;-2.576;2024-01-25T07:28:11;10.40;66.00
7686;DHT22;3885;51.474;-2.576;2024-01-25T07:30:38;10.50;65.90
7686;DHT22;3885;51.474;-2.576;2024-01-25T07:33:06;10.50;65.80
7686;DHT22;3885;51.474;-2.576;2024-01-25T07:35:33;10.50;65.70
7686;DHT22;3885;51.474;-2.576;2024-01-25T07:38:01;10.60;65.70
7686;DHT22;3885;51.474;-2.576;2024-01-25T07:40:28;10.50;65.70
7686;DHT22;3885;51.474;-2.576;2024-01-25T07:42:55;10.50;65.70
7686;DHT22;3885;51.474;-2.576;2024-01-25T07:45:22;10.50;65.70
7686;DHT22;3885;51.474;-2.576;2024-01-25T07:47:48;10.40;65.70
7686;DHT22;3885;51.474;-2.576;2024-01-25T07:50:17;10.40;65.60
7686;DHT22;3885;51.474;-2.576;2024-01-25T07:52:44;10.40;65.60
7686;DHT22;3885;51.474;-2.576;2024-01-25T07:55:11;10.50;65.60
7686;DHT22;3885;51.474;-2.576;2024-01-25T07:57:37;10.50;65.60
7686;DHT22;3885;51.474;-2.576;2024-01-25T08:00:06;10.50;65.50
7686;DHT22;3885;51.474;-2.576;2024-01-25T08:02:34;10.50;65.50
7686;DHT22;3885;51.474;-2.576;2024-01-25T08:05:01;10.50;65.50
7686;DHT22;3885;51.474;-2.576;2024-01-25T08:07:30;10.50;65.50
7686;DHT22;3885;51.474;-2.576;2024-01-25T08:09:57;10.60;65.30
7686;DHT22;3885;51.474;-2.576;2024-01-25T08:12:24;10.60;65.30
7686;DHT22;3885;51.474;-2.576;2024-01-25T08:14:51;10.60;65.20
7686;DHT22;3885;51.474;-2.576;2024-01-25T08:17:18;10.60;65.20
7686;DHT22;3885;51.474;-2.576;2024-01-25T08:19:45;10.60;65.10
7686;DHT22;3885;51.474;-2.576;2024-01-25T08:22:12;10.60;65.10
7686;DHT22;3885;51.474;-2.576;2024-01-25T08:24:41;10.60;65.00
7686;DHT22;3885;51.474;-2.576;2024-01-25T08:27:09;10.60;64.90
7686;DHT22;3885;51.474;-2.576;2024-01-25T08:29:36;10.60;64.80
7686;DHT22;3885;51.474;-2.576;2024-01-25T08:32:03;10.70;64.70
7686;DHT22;3885;51.474;-2.576;2024-01-25T08:34:30;10.70;64.50
7686;DHT22;3885;51.474;-2.576;2024-01-25T08:36:57;10.70;64.40
7686;DHT22;3885;51.474;-2.576;2024-01-25T08:39:24;10.70;64.10
7686;DHT22;3885;51.474;-2.576;2024-01-25T08:41:53;10.80;64.20
7686;DHT22;3885;51.474;-2.576;2024-01-25T08:44:20;10.80;64.10
7686;DHT22;3885;51.474;-2.576;2024-01-25T08:46:47;10.70;64.10
7686;DHT22;3885;51.474;-2.576;2024-01-25T08:49:14;10.70;64.20
7686;DHT22;3885;51.474;-2.576;2024-01-25T08:51:41;10.90;63.80
7686;DHT22;3885;51.474;-2.576;2024-01-25T08:54:08;11.00;63.70
7686;DHT22;3885;51.474;-2.576;2024-01-25T08:56:35;11.00;63.70
7686;DHT22;3885;51.474;-2.576;2024-01-25T08:59:03;11.00;63.80
7686;DHT22;3885;51.474;-2.576;2024-01-25T09:01:30;11.00;63.90
7686;DHT22;3885;51.474;-2.576;2024-01-25T09:03:57;10.90;64.00
7686;DHT22;3885;51.474;-2.576;2024-01-25T09:06:28;10.90;64.00
7686;DHT22;3885;51.474;-2.576;2024-01-25T09:08:55;11.00;64.00
7686;DHT22;3885;51.474;-2.576;2024-01-25T09:11:22;11.00;64.00
7686;DHT22;3885;51.474;-2.576;2024-01-25T09:13:49;11.00;64.10
7686;DHT22;3885;51.474;-2.576;2024-01-25T09:16:18;11.00;64.10
7686;DHT22;3885;51.474;-2.576;2024-01-25T09:18:46;11.00;64.20
7686;DHT22;3885;51.474;-2.576;2024-01-25T09:21:13;11.00;64.20
7686;DHT22;3885;51.474;-2.576;2024-01-25T09:23:40;11.20;63.90
7686;DHT22;3885;51.474;-2.576;2024-01-25T09:26:07;11.20;64.00
7686;DHT22;3885;51.474;-2.576;2024-01-25T09:28:34;11.20;64.10
7686;DHT22;3885;51.474;-2.576;2024-01-25T09:31:01;11.20;64.10
7686;DHT22;3885;51.474;-2.576;2024-01-25T09:33:30;11.20;64.20
7686;DHT22;3885;51.474;-2.576;2024-01-25T09:35:56;11.20;64.20
7686;DHT22;3885;51.474;-2.576;2024-01-25T09:38:23;11.20;64.30
7686;DHT22;3885;51.474;-2.576;2024-01-25T09:40:50;11.10;64.40
7686;DHT22;3885;51.474;-2.576;2024-01-25T09:43:17;11.10;64.40
7686;DHT22;3885;51.474;-2.576;2024-01-25T09:45:46;11.10;64.40
7686;DHT22;3885;51.474;-2.576;2024-01-25T09:48:14;11.00;64.40
7686;DHT22;3885;51.474;-2.576;2024-01-25T09:50:43;11.10;64.30
7686;DHT22;3885;51.474;-2.576;2024-01-25T09:53:12;11.00;64.20
7686;DHT22;3885;51.474;-2.576;2024-01-25T09:55:41;11.10;63.20
7686;DHT22;3885;51.474;-2.576;2024-01-25T09:58:09;11.10;63.90
7686;DHT22;3885;51.474;-2.576;2024-01-25T10:00:37;11.10;64.00
7686;DHT22;3885;51.474;-2.576;2024-01-25T10:03:04;11.10;64.00
7686;DHT22;3885;51.474;-2.576;2024-01-25T10:05:31;11.20;63.90
7686;DHT22;3885;51.474;-2.576;2024-01-25T10:08:00;11.10;63.90
7686;DHT22;3885;51.474;-2.576;2024-01-25T10:10:27;11.10;63.90
7686;DHT22;3885;51.474;-2.576;2024-01-25T10:12:59;11.20;63.80
7686;DHT22;3885;51.474;-2.576;2024-01-25T10:15:26;11.20;63.80
7686;DHT22;3885;51.474;-2.576;2024-01-25T10:17:52;11.30;63.80
7686;DHT22;3885;51.474;-2.576;2024-01-25T10:20:19;11.30;63.80
7686;DHT22;3885;51.474;-2.576;2024-01-25T10:22:50;11.40;63.70
7686;DHT22;3885;51.474;-2.576;2024-01-25T10:25:19;11.40;63.90
7686;DHT22;3885;51.474;-2.576;2024-01-25T10:27:47;11.40;64.00
7686;DHT22;3885;51.474;-2.576;2024-01-25T10:30:14;11.50;64.10
7686;DHT22;3885;51.474;-2.576;2024-01-25T10:32:41;11.50;64.30
7686;DHT22;3885;51.474;-2.576;2024-01-25T10:35:09;11.60;64.40
7686;DHT22;3885;51.474;-2.576;2024-01-25T10:37:39;11.60;64.50
7686;DHT22;3885;51.474;-2.576;2024-01-25T10:40:09;11.60;64.80
7686;DHT22;3885;51.474;-2.576;2024-01-25T10:42:38;11.60;64.90
7686;DHT22;3885;51.474;-2.576;2024-01-25T10:45:06;11.70;65.00
7686;DHT22;3885;51.474;-2.576;2024-01-25T10:47:33;11.80;65.20
7686;DHT22;3885;51.474;-2.576;2024-01-25T10:50:02;11.80;65.40
7686;DHT22;3885;51.474;-2.576;2024-01-25T10:52:29;11.80;65.60
7686;DHT22;3885;51.474;-2.576;2024-01-25T10:54:56;11.90;65.60
7686;DHT22;3885;51.474;-2.576;2024-01-25T10:57:23;11.90;65.80
7686;DHT22;3885;51.474;-2.576;2024-01-25T10:59:52;12.10;66.10
7686;DHT22;3885;51.474;-2.576;2024-01-25T11:02:19;12.00;66.30
7686;DHT22;3885;51.474;-2.576;2024-01-25T11:04:53;12.10;64.50
7686;DHT22;3885;51.474;-2.576;2024-01-25T11:07:20;12.10;66.10
7686;DHT22;3885;51.474;-2.576;2024-01-25T11:09:51;12.10;66.90
7686;DHT22;3885;51.474;-2.576;2024-01-25T11:12:19;12.10;67.20
7686;DHT22;3885;51.474;-2.576;2024-01-25T11:14:55;12.20;67.30
7686;DHT22;3885;51.474;-2.576;2024-01-25T11:17:22;12.20;67.50
7686;DHT22;3885;51.474;-2.576;2024-01-25T11:19:50;12.20;67.70
7686;DHT22;3885;51.474;-2.576;2024-01-25T11:22:17;12.30;67.80
7686;DHT22;3885;51.474;-2.576;2024-01-25T11:24:45;12.30;68.10
7686;DHT22;3885;51.474;-2.576;2024-01-25T11:27:14;12.30;68.30
7686;DHT22;3885;51.474;-2.576;2024-01-25T11:29:41;12.40;68.30
7686;DHT22;3885;51.474;-2.576;2024-01-25T11:32:10;12.50;68.40
7686;DHT22;3885;51.474;-2.576;2024-01-25T11:34:37;12.50;68.70
7686;DHT22;3885;51.474;-2.576;2024-01-25T11:37:03;12.50;68.90
7686;DHT22;3885;51.474;-2.576;2024-01-25T11:39:32;12.60;69.10
7686;DHT22;3885;51.474;-2.576;2024-01-25T11:41:59;12.60;69.30
7686;DHT22;3885;51.474;-2.576;2024-01-25T11:44:26;12.70;69.50
7686;DHT22;3885;51.474;-2.576;2024-01-25T11:46:54;12.70;69.70
7686;DHT22;3885;51.474;-2.576;2024-01-25T11:49:24;12.70;70.00
7686;DHT22;3885;51.474;-2.576;2024-01-25T11:51:51;12.70;70.20
7686;DHT22;3885;51.474;-2.576;2024-01-25T11:54:18;12.70;70.30
7686;DHT22;3885;51.474;-2.576;2024-01-25T11:56:46;12.80;70.40
7686;DHT22;3885;51.474;-2.576;2024-01-25T11:59:13;12.80;70.40
7686;DHT22;3885;51.474;-2.576;2024-01-25T12:01:41;12.90;70.60
7686;DHT22;3885;51.474;-2.576;2024-01-25T12:04:08;12.90;70.50
7686;DHT22;3885;51.474;-2.576;2024-01-25T12:06:36;12.90;70.80
7686;DHT22;3885;51.474;-2.576;2024-01-25T12:09:10;12.90;71.10
7686;DHT22;3885;51.474;-2.576;2024-01-25T12:11:39;13.00;71.10
7686;DHT22;3885;51.474;-2.576;2024-01-25T12:14:07;13.00;71.30
7686;DHT22;3885;51.474;-2.576;2024-01-25T12:16:34;13.10;71.30
7686;DHT22;3885;51.474;-2.576;2024-01-25T12:19:01;13.20;71.50
7686;DHT22;3885;51.474;-2.576;2024-01-25T12:21:32;13.20;71.70
7686;DHT22;3885;51.474;-2.576;2024-01-25T12:24:01;13.20;72.00
7686;DHT22;3885;51.474;-2.576;2024-01-25T12:26:33;13.20;72.00
7686;DHT22;3885;51.474;-2.576;2024-01-25T12:29:00;13.20;72.20
7686;DHT22;3885;51.474;-2.576;2024-01-25T12:31:27;13.30;72.20
7686;DHT22;3885;51.474;-2.576;2024-01-25T12:33:54;13.30;72.40
7686;DHT22;3885;51.474;-2.576;2024-01-25T12:36:21;13.40;72.40
7686;DHT22;3885;51.474;-2.576;2024-01-25T12:38:47;13.50;72.50
7686;DHT22;3885;51.474;-2.576;2024-01-25T12:41:16;13.50;72.60
7686;DHT22;3885;51.474;-2.576;2024-01-25T12:43:43;13.50;72.80
7686;DHT22;3885;51.474;-2.576;2024-01-25T12:46:10;13.50;72.90
7686;DHT22;3885;51.474;-2.576;2024-01-25T12:48:37;13.50;72.90
7686;DHT22;3885;51.474;-2.576;2024-01-25T12:51:04;13.60;73.00
7686;DHT22;3885;51.474;-2.576;2024-01-25T12:53:31;13.60;73.20
7686;DHT22;3885;51.474;-2.576;2024-01-25T12:55:58;13.60;73.20
7686;DHT22;3885;51.474;-2.576;2024-01-25T12:58:26;13.70;73.40
7686;DHT22;3885;51.474;-2.576;2024-01-25T13:00:53;13.60;73.50
7686;DHT22;3885;51.474;-2.576;2024-01-25T13:03:20;13.70;73.50
7686;DHT22;3885;51.474;-2.576;2024-01-25T13:05:47;13.60;73.70
7686;DHT22;3885;51.474;-2.576;2024-01-25T13:08:14;13.60;73.70
7686;DHT22;3885;51.474;-2.576;2024-01-25T13:10:41;13.60;73.70
7686;DHT22;3885;51.474;-2.576;2024-01-25T13:13:08;13.70;73.60
7686;DHT22;3885;51.474;-2.576;2024-01-25T13:15:36;13.60;73.80
7686;DHT22;3885;51.474;-2.576;2024-01-25T13:18:03;13.60;73.70
7686;DHT22;3885;51.474;-2.576;2024-01-25T13:20:30;13.70;73.70
7686;DHT22;3885;51.474;-2.576;2024-01-25T13:22:57;13.70;73.80
7686;DHT22;3885;51.474;-2.576;2024-01-25T13:25:24;13.80;73.80
7686;DHT22;3885;51.474;-2.576;2024-01-25T13:27:51;13.70;73.90
7686;DHT22;3885;51.474;-2.576;2024-01-25T13:30:18;13.70;73.90
7686;DHT22;3885;51.474;-2.576;2024-01-25T13:32:46;13.70;74.00
7686;DHT22;3885;51.474;-2.576;2024-01-25T13:35:13;13.70;74.00
7686;DHT22;3885;51.474;-2.576;2024-01-25T13:37:40;13.70;74.10
7686;DHT22;3885;51.474;-2.576;2024-01-25T13:40:08;13.70;74.10
7686;DHT22;3885;51.474;-2.576;2024-01-25T13:42:35;13.70;74.10
7686;DHT22;3885;51.474;-2.576;2024-01-25T13:45:02;13.80;74.20
7686;DHT22;3885;51.474;-2.576;2024-01-25T13:47:29;13.80;74.20
7686;DHT22;3885;51.474;-2.576;2024-01-25T13:49:57;13.70;74.20
7686;DHT22;3885;51.474;-2.576;2024-01-25T13:52:24;13.70;74.20
7686;DHT22;3885;51.474;-2.576;2024-01-25T13:54:51;13.80;74.20
7686;DHT22;3885;51.474;-2.576;2024-01-25T13:57:18;13.80;74.20
7686;DHT22;3885;51.474;-2.576;2024-01-25T13:59:46;13.80;74.20
7686;DHT22;3885;51.474;-2.576;2024-01-25T14:02:13;13.80;74.30
7686;DHT22;3885;51.474;-2.576;2024-01-25T14:04:40;13.80;74.30
7686;DHT22;3885;51.474;-2.576;2024-01-25T14:07:08;13.80;74.30
7686;DHT22;3885;51.474;-2.576;2024-01-25T14:09:35;13.90;74.20
7686;DHT22;3885;51.474;-2.576;2024-01-25T14:12:04;14.00;74.20
7686;DHT22;3885;51.474;-2.576;2024-01-25T14:14:31;14.00;74.30
7686;DHT22;3885;51.474;-2.576;2024-01-25T14:16:58;14.00;74.40
7686;DHT22;3885;51.474;-2.576;2024-01-25T14:19:25;14.10;74.40
7686;DHT22;3885;51.474;-2.576;2024-01-25T14:21:52;14.10;74.40
7686;DHT22;3885;51.474;-2.576;2024-01-25T14:24:20;14.20;74.50
7686;DHT22;3885;51.474;-2.576;2024-01-25T14:26:47;14.20;74.70
7686;DHT22;3885;51.474;-2.576;2024-01-25T14:29:14;14.20;74.80
7686;DHT22;3885;51.474;-2.576;2024-01-25T14:31:41;14.10;74.90
7686;DHT22;3885;51.474;-2.576;2024-01-25T14:34:08;14.10;74.90
7686;DHT22;3885;51.474;-2.576;2024-01-25T14:36:35;14.20;75.00
7686;DHT22;3885;51.474;-2.576;2024-01-25T14:39:02;14.10;74.90
7686;DHT22;3885;51.474;-2.576;2024-01-25T14:41:31;14.10;74.90
7686;DHT22;3885;51.474;-2.576;2024-01-25T14:43:59;14.10;75.00
7686;DHT22;3885;51.474;-2.576;2024-01-25T14:46:26;14.10;75.00
7686;DHT22;3885;51.474;-2.576;2024-01-25T14:48:53;14.10;75.00
7686;DHT22;3885;51.474;-2.576;2024-01-25T14:51:22;14.00;75.10
7686;DHT22;3885;51.474;-2.576;2024-01-25T14:53:49;14.00;75.00
7686;DHT22;3885;51.474;-2.576;2024-01-25T14:56:16;14.00;75.00
7686;DHT22;3885;51.474;-2.576;2024-01-25T14:58:44;14.00;75.00
7686;DHT22;3885;51.474;-2.576;2024-01-25T15:01:13;14.00;75.10
7686;DHT22;3885;51.474;-2.576;2024-01-25T15:03:43;14.00;75.00
7686;DHT22;3885;51.474;-2.576;2024-01-25T15:06:10;14.00;75.10
7686;DHT22;3885;51.474;-2.576;2024-01-25T15:08:37;14.10;75.00
7686;DHT22;3885;51.474;-2.576;2024-01-25T15:11:04;14.10;75.10
7686;DHT22;3885;51.474;-2.576;2024-01-25T15:13:31;14.00;75.10
7686;DHT22;3885;51.474;-2.576;2024-01-25T15:15:59;14.00;75.10
7686;DHT22;3885;51.474;-2.576;2024-01-25T15:18:26;13.90;75.10
7686;DHT22;3885;51.474;-2.576;2024-01-25T15:20:53;13.90;75.00
7686;DHT22;3885;51.474;-2.576;2024-01-25T15:23:20;13.90;74.90
7686;DHT22;3885;51.474;-2.576;2024-01-25T15:25:47;13.80;74.90
7686;DHT22;3885;51.474;-2.576;2024-01-25T15:28:15;13.70;74.80
7686;DHT22;3885;51.474;-2.576;2024-01-25T15:30:42;13.70;74.70
7686;DHT22;3885;51.474;-2.576;2024-01-25T15:33:10;13.60;74.60
7686;DHT22;3885;51.474;-2.576;2024-01-25T15:35:37;13.50;74.60
7686;DHT22;3885;51.474;-2.576;2024-01-25T15:38:04;13.50;74.50
7686;DHT22;3885;51.474;-2.576;2024-01-25T15:40:33;13.50;74.40
7686;DHT22;3885;51.474;-2.576;2024-01-25T15:43:00;13.40;74.30
7686;DHT22;3885;51.474;-2.576;2024-01-25T15:45:27;13.40;74.20
7686;DHT22;3885;51.474;-2.576;2024-01-25T15:47:54;13.30;74.30
7686;DHT22;3885;51.474;-2.576;2024-01-25T15:50:23;13.30;74.10
7686;DHT22;3885;51.474;-2.576;2024-01-25T15:52:50;13.30;74.10